sensor_id;sensor_type;location;lat;lon;timestamp;P1;P2;P0
57884;PMS5003;43703;51.060;-0.086;2022-09-09T00:00:19;5;5;
57884;PMS5003;43703;51.060;-0.086;2022-09-09T00:02:45;7;7;
57884;PMS5003;43703;51.060;-0.086;2022-09-09T00:05:13;4;3;
57884;PMS5003;43703;51.060;-0.086;2022-09-09T00:07:37;4;4;
57884;PMS5003;43703;51.060;-0.086;2022-09-09T00:10:05;4;4;
57884;PMS5003;43703;51.060;-0.086;2022-09-09T00:12:32;3;3;
57884;PMS5003;43703;51.060;-0.086;2022-09-09T00:14:54;3;3;
57884;PMS5003;43703;51.060;-0.086;2022-09-09T00:17:22;6;4;
57884;PMS5003;43703;51.060;-0.086;2022-09-09T00:19:45;4;4;
57884;PMS5003;43703;51.060;-0.086;2022-09-09T00:22:14;5;5;
57884;PMS5003;43703;51.060;-0.086;2022-09-09T00:24:38;5;5;
57884;PMS5003;43703;51.060;-0.086;2022-09-09T00:27:04;4;2;
57884;PMS5003;43703;51.060;-0.086;2022-09-09T00:29:28;7;3;
57884;PMS5003;43703;51.060;-0.086;2022-09-09T00:31:54;5;3;
57884;PMS5003;43703;51.060;-0.086;2022-09-09T00:34:21;2;2;
57884;PMS5003;43703;51.060;-0.086;2022-09-09T00:36:45;2;2;
57884;PMS5003;43703;51.060;-0.086;2022-09-09T00:39:13;3;3;
57884;PMS5003;43703;51.060;-0.086;2022-09-09T00:41:40;2;2;
57884;PMS5003;43703;51.060;-0.086;2022-09-09T00:44:03;2;2;
57884;PMS5003;43703;51.060;-0.086;2022-09-09T00:46:35;5;5;
57884;PMS5003;43703;51.060;-0.086;2022-09-09T00:48:57;3;1;
57884;PMS5003;43703;51.060;-0.086;2022-09-09T00:51:22;2;2;
57884;PMS5003;43703;51.060;-0.086;2022-09-09T00:56:12;4;4;
57884;PMS5003;43703;51.060;-0.086;2022-09-09T00:58:38;3;3;
57884;PMS5003;43703;51.060;-0.086;2022-09-09T01:01:04;8;5;
57884;PMS5003;43703;51.060;-0.086;2022-09-09T01:03:31;2;2;
57884;PMS5003;43703;51.060;-0.086;2022-09-09T01:05:58;3;3;
57884;PMS5003;43703;51.060;-0.086;2022-09-09T01:08:25;4;4;
57884;PMS5003;43703;51.060;-0.086;2022-09-09T01:10:48;4;4;
57884;PMS5003;43703;51.060;-0.086;2022-09-09T01:13:14;4;4;
57884;PMS5003;43703;51.060;-0.086;2022-09-09T01:15:38;5;3;
57884;PMS5003;43703;51.060;-0.086;2022-09-09T01:18:04;4;2;
57884;PMS5003;43703;51.060;-0.086;2022-09-09T01:20:31;3;3;
57884;PMS5003;43703;51.060;-0.086;2022-09-09T01:23:00;4;4;
57884;PMS5003;43703;51.060;-0.086;2022-09-09T01:25:26;4;3;
57884;PMS5003;43703;51.060;-0.086;2022-09-09T01:30:14;2;2;
57884;PMS5003;43703;51.060;-0.086;2022-09-09T01:32:40;6;6;
57884;PMS5003;43703;51.060;-0.086;2022-09-09T01:49:39;2;2;
57884;PMS5003;43703;51.060;-0.086;2022-09-09T01:52:05;3;3;
57884;PMS5003;43703;51.060;-0.086;2022-09-09T01:54:31;4;2;
57884;PMS5003;43703;51.060;-0.086;2022-09-09T01:56:59;3;2;
57884;PMS5003;43703;51.060;-0.086;2022-09-09T01:59:25;2;2;
57884;PMS5003;43703;51.060;-0.086;2022-09-09T02:01:52;2;2;
57884;PMS5003;43703;51.060;-0.086;2022-09-09T02:04:18;3;3;
57884;PMS5003;43703;51.060;-0.086;2022-09-09T02:06:40;5;3;
57884;PMS5003;43703;51.060;-0.086;2022-09-09T02:09:06;3;3;
57884;PMS5003;43703;51.060;-0.086;2022-09-09T02:11:32;4;3;
57884;PMS5003;43703;51.060;-0.086;2022-09-09T02:14:00;4;4;
57884;PMS5003;43703;51.060;-0.086;2022-09-09T02:16:24;3;3;
57884;PMS5003;43703;51.060;-0.086;2022-09-09T02:18:50;5;3;
57884;PMS5003;43703;51.060;-0.086;2022-09-09T02:21:15;5;4;
57884;PMS5003;43703;51.060;-0.086;2022-09-09T02:23:41;4;2;
57884;PMS5003;43703;51.060;-0.086;2022-09-09T02:26:07;4;4;
57884;PMS5003;43703;51.060;-0.086;2022-09-09T02:28:33;3;3;
57884;PMS5003;43703;51.060;-0.086;2022-09-09T02:30:59;4;4;
57884;PMS5003;43703;51.060;-0.086;2022-09-09T02:33:26;5;3;
57884;PMS5003;43703;51.060;-0.086;2022-09-09T02:35:50;1;1;
57884;PMS5003;43703;51.060;-0.086;2022-09-09T02:38:16;4;4;
57884;PMS5003;43703;51.060;-0.086;2022-09-09T02:40:42;3;3;
57884;PMS5003;43703;51.060;-0.086;2022-09-09T02:43:08;4;4;
57884;PMS5003;43703;51.060;-0.086;2022-09-09T02:45:36;3;3;
57884;PMS5003;43703;51.060;-0.086;2022-09-09T02:48:02;4;3;
57884;PMS5003;43703;51.060;-0.086;2022-09-09T02:50:26;2;2;
57884;PMS5003;43703;51.060;-0.086;2022-09-09T02:52:55;6;5;
57884;PMS5003;43703;51.060;-0.086;2022-09-09T02:55:18;3;3;
57884;PMS5003;43703;51.060;-0.086;2022-09-09T02:57:43;7;4;
57884;PMS5003;43703;51.060;-0.086;2022-09-09T03:00:09;7;4;
57884;PMS5003;43703;51.060;-0.086;2022-09-09T03:02:35;3;3;
57884;PMS5003;43703;51.060;-0.086;2022-09-09T03:05:00;4;3;
57884;PMS5003;43703;51.060;-0.086;2022-09-09T03:07:26;5;4;
57884;PMS5003;43703;51.060;-0.086;2022-09-09T03:09:52;3;3;
57884;PMS5003;43703;51.060;-0.086;2022-09-09T03:12:18;4;4;
57884;PMS5003;43703;51.060;-0.086;2022-09-09T03:14:44;4;2;
57884;PMS5003;43703;51.060;-0.086;2022-09-09T03:17:10;5;5;
57884;PMS5003;43703;51.060;-0.086;2022-09-09T03:19:35;2;2;
57884;PMS5003;43703;51.060;-0.086;2022-09-09T03:22:01;3;3;
57884;PMS5003;43703;51.060;-0.086;2022-09-09T03:24:27;4;4;
57884;PMS5003;43703;51.060;-0.086;2022-09-09T03:26:53;4;3;
57884;PMS5003;43703;51.060;-0.086;2022-09-09T03:29:19;2;2;
57884;PMS5003;43703;51.060;-0.086;2022-09-09T03:31:44;3;3;
57884;PMS5003;43703;51.060;-0.086;2022-09-09T03:34:10;1;1;
57884;PMS5003;43703;51.060;-0.086;2022-09-09T03:36:36;3;3;
57884;PMS5003;43703;51.060;-0.086;2022-09-09T03:39:02;4;3;
57884;PMS5003;43703;51.060;-0.086;2022-09-09T03:41:28;5;5;
57884;PMS5003;43703;51.060;-0.086;2022-09-09T03:43:54;2;2;
57884;PMS5003;43703;51.060;-0.086;2022-09-09T03:46:20;8;7;
57884;PMS5003;43703;51.060;-0.086;2022-09-09T03:48:45;5;5;
57884;PMS5003;43703;51.060;-0.086;2022-09-09T03:51:11;3;3;
57884;PMS5003;43703;51.060;-0.086;2022-09-09T03:53:37;5;3;
57884;PMS5003;43703;51.060;-0.086;2022-09-09T03:56:03;2;2;
57884;PMS5003;43703;51.060;-0.086;2022-09-09T03:58:29;6;4;
57884;PMS5003;43703;51.060;-0.086;2022-09-09T04:00:55;5;4;
57884;PMS5003;43703;51.060;-0.086;2022-09-09T04:03:21;5;4;
57884;PMS5003;43703;51.060;-0.086;2022-09-09T04:05:48;4;4;
57884;PMS5003;43703;51.060;-0.086;2022-09-09T04:08:12;4;4;
57884;PMS5003;43703;51.060;-0.086;2022-09-09T04:10:38;5;5;
57884;PMS5003;43703;51.060;-0.086;2022-09-09T04:13:04;4;3;
57884;PMS5003;43703;51.060;-0.086;2022-09-09T04:15:30;3;3;
57884;PMS5003;43703;51.060;-0.086;2022-09-09T04:17:55;4;4;
57884;PMS5003;43703;51.060;-0.086;2022-09-09T04:20:22;5;4;
57884;PMS5003;43703;51.060;-0.086;2022-09-09T04:22:47;5;5;
57884;PMS5003;43703;51.060;-0.086;2022-09-09T04:25:13;3;3;
57884;PMS5003;43703;51.060;-0.086;2022-09-09T04:27:39;6;5;
57884;PMS5003;43703;51.060;-0.086;2022-09-09T04:30:05;4;4;
57884;PMS5003;43703;51.060;-0.086;2022-09-09T04:32:32;3;2;
57884;PMS5003;43703;51.060;-0.086;2022-09-09T04:34:56;3;3;
57884;PMS5003;43703;51.060;-0.086;2022-09-09T04:37:22;3;3;
57884;PMS5003;43703;51.060;-0.086;2022-09-09T04:39:48;4;4;
57884;PMS5003;43703;51.060;-0.086;2022-09-09T04:42:14;4;4;
57884;PMS5003;43703;51.060;-0.086;2022-09-09T04:44:40;3;3;
57884;PMS5003;43703;51.060;-0.086;2022-09-09T04:47:06;4;4;
57884;PMS5003;43703;51.060;-0.086;2022-09-09T04:49:31;6;4;
57884;PMS5003;43703;51.060;-0.086;2022-09-09T04:51:57;4;4;
57884;PMS5003;43703;51.060;-0.086;2022-09-09T04:54:23;5;5;
57884;PMS5003;43703;51.060;-0.086;2022-09-09T04:56:49;3;3;
57884;PMS5003;43703;51.060;-0.086;2022-09-09T04:59:15;3;3;
57884;PMS5003;43703;51.060;-0.086;2022-09-09T05:01:41;6;4;
57884;PMS5003;43703;51.060;-0.086;2022-09-09T05:04:06;5;5;
57884;PMS5003;43703;51.060;-0.086;2022-09-09T05:06:32;4;4;
57884;PMS5003;43703;51.060;-0.086;2022-09-09T05:08:58;4;4;
57884;PMS5003;43703;51.060;-0.086;2022-09-09T05:11:25;4;4;
57884;PMS5003;43703;51.060;-0.086;2022-09-09T05:13:50;4;4;
57884;PMS5003;43703;51.060;-0.086;2022-09-09T05:16:16;3;2;
57884;PMS5003;43703;51.060;-0.086;2022-09-09T05:18:41;5;5;
57884;PMS5003;43703;51.060;-0.086;2022-09-09T05:21:07;5;5;
57884;PMS5003;43703;51.060;-0.086;2022-09-09T05:23:33;6;5;
57884;PMS5003;43703;51.060;-0.086;2022-09-09T05:25:59;5;5;
57884;PMS5003;43703;51.060;-0.086;2022-09-09T05:28:25;6;4;
57884;PMS5003;43703;51.060;-0.086;2022-09-09T05:30:55;7;7;
57884;PMS5003;43703;51.060;-0.086;2022-09-09T05:33:15;6;6;
57884;PMS5003;43703;51.060;-0.086;2022-09-09T05:35:41;6;6;
57884;PMS5003;43703;51.060;-0.086;2022-09-09T05:38:07;4;4;
57884;PMS5003;43703;51.060;-0.086;2022-09-09T05:40:33;6;6;
57884;PMS5003;43703;51.060;-0.086;2022-09-09T05:42:59;10;8;
57884;PMS5003;43703;51.060;-0.086;2022-09-09T05:45:24;4;4;
57884;PMS5003;43703;51.060;-0.086;2022-09-09T05:47:51;7;6;
57884;PMS5003;43703;51.060;-0.086;2022-09-09T05:50:16;8;7;
57884;PMS5003;43703;51.060;-0.086;2022-09-09T05:52:42;7;7;
57884;PMS5003;43703;51.060;-0.086;2022-09-09T05:55:08;8;6;
57884;PMS5003;43703;51.060;-0.086;2022-09-09T05:57:33;9;8;
57884;PMS5003;43703;51.060;-0.086;2022-09-09T05:59:59;11;11;
57884;PMS5003;43703;51.060;-0.086;2022-09-09T06:02:24;10;10;
57884;PMS5003;43703;51.060;-0.086;2022-09-09T06:04:51;10;9;
57884;PMS5003;43703;51.060;-0.086;2022-09-09T06:07:16;10;9;
57884;PMS5003;43703;51.060;-0.086;2022-09-09T06:09:43;11;11;
57884;PMS5003;43703;51.060;-0.086;2022-09-09T06:12:08;11;10;
57884;PMS5003;43703;51.060;-0.086;2022-09-09T06:14:33;10;10;
57884;PMS5003;43703;51.060;-0.086;2022-09-09T06:16:59;12;11;
57884;PMS5003;43703;51.060;-0.086;2022-09-09T06:19:26;12;10;
57884;PMS5003;43703;51.060;-0.086;2022-09-09T06:21:51;9;9;
57884;PMS5003;43703;51.060;-0.086;2022-09-09T06:24:16;11;9;
57884;PMS5003;43703;51.060;-0.086;2022-09-09T06:26:42;12;11;
57884;PMS5003;43703;51.060;-0.086;2022-09-09T06:29:08;10;10;
57884;PMS5003;43703;51.060;-0.086;2022-09-09T06:31:35;11;8;
57884;PMS5003;43703;51.060;-0.086;2022-09-09T06:34:00;9;9;
57884;PMS5003;43703;51.060;-0.086;2022-09-09T06:36:25;11;11;
57884;PMS5003;43703;51.060;-0.086;2022-09-09T06:38:51;13;10;
57884;PMS5003;43703;51.060;-0.086;2022-09-09T06:41:18;10;10;
57884;PMS5003;43703;51.060;-0.086;2022-09-09T06:43:43;8;8;
57884;PMS5003;43703;51.060;-0.086;2022-09-09T06:46:10;10;9;
57884;PMS5003;43703;51.060;-0.086;2022-09-09T06:48:34;10;10;
57884;PMS5003;43703;51.060;-0.086;2022-09-09T06:51:00;7;7;
57884;PMS5003;43703;51.060;-0.086;2022-09-09T06:53:25;9;9;
57884;PMS5003;43703;51.060;-0.086;2022-09-09T06:55:51;10;9;
57884;PMS5003;43703;51.060;-0.086;2022-09-09T06:58:17;11;9;
57884;PMS5003;43703;51.060;-0.086;2022-09-09T07:00:43;7;7;
57884;PMS5003;43703;51.060;-0.086;2022-09-09T07:03:09;10;10;
57884;PMS5003;43703;51.060;-0.086;2022-09-09T07:05:35;9;8;
57884;PMS5003;43703;51.060;-0.086;2022-09-09T07:08:00;6;6;
57884;PMS5003;43703;51.060;-0.086;2022-09-09T07:10:26;7;7;
57884;PMS5003;43703;51.060;-0.086;2022-09-09T07:12:52;7;7;
57884;PMS5003;43703;51.060;-0.086;2022-09-09T07:15:18;8;8;
57884;PMS5003;43703;51.060;-0.086;2022-09-09T07:17:44;8;7;
57884;PMS5003;43703;51.060;-0.086;2022-09-09T07:20:10;9;9;
57884;PMS5003;43703;51.060;-0.086;2022-09-09T07:22:35;8;8;
57884;PMS5003;43703;51.060;-0.086;2022-09-09T07:25:01;7;7;
57884;PMS5003;43703;51.060;-0.086;2022-09-09T07:27:27;8;8;
57884;PMS5003;43703;51.060;-0.086;2022-09-09T07:29:53;10;9;
57884;PMS5003;43703;51.060;-0.086;2022-09-09T07:32:19;8;8;
57884;PMS5003;43703;51.060;-0.086;2022-09-09T07:34:44;8;8;
57884;PMS5003;43703;51.060;-0.086;2022-09-09T07:37:10;8;7;
57884;PMS5003;43703;51.060;-0.086;2022-09-09T07:39:36;10;8;
57884;PMS5003;43703;51.060;-0.086;2022-09-09T07:42:02;8;7;
57884;PMS5003;43703;51.060;-0.086;2022-09-09T07:44:28;7;7;
57884;PMS5003;43703;51.060;-0.086;2022-09-09T07:46:54;9;8;
57884;PMS5003;43703;51.060;-0.086;2022-09-09T07:49:19;11;8;
57884;PMS5003;43703;51.060;-0.086;2022-09-09T07:51:46;9;9;
57884;PMS5003;43703;51.060;-0.086;2022-09-09T07:54:12;7;7;
57884;PMS5003;43703;51.060;-0.086;2022-09-09T07:56:38;5;5;
57884;PMS5003;43703;51.060;-0.086;2022-09-09T07:59:03;6;6;
57884;PMS5003;43703;51.060;-0.086;2022-09-09T08:01:30;9;9;
57884;PMS5003;43703;51.060;-0.086;2022-09-09T08:03:56;9;8;
57884;PMS5003;43703;51.060;-0.086;2022-09-09T08:06:21;7;7;
57884;PMS5003;43703;51.060;-0.086;2022-09-09T08:08:49;9;9;
57884;PMS5003;43703;51.060;-0.086;2022-09-09T08:11:13;10;8;
57884;PMS5003;43703;51.060;-0.086;2022-09-09T08:13:38;8;8;
57884;PMS5003;43703;51.060;-0.086;2022-09-09T08:16:05;8;8;
57884;PMS5003;43703;51.060;-0.086;2022-09-09T08:18:29;7;7;
57884;PMS5003;43703;51.060;-0.086;2022-09-09T08:20:55;9;9;
57884;PMS5003;43703;51.060;-0.086;2022-09-09T08:23:21;8;7;
57884;PMS5003;43703;51.060;-0.086;2022-09-09T08:25:47;8;7;
57884;PMS5003;43703;51.060;-0.086;2022-09-09T08:28:13;8;7;
57884;PMS5003;43703;51.060;-0.086;2022-09-09T08:30:39;10;9;
57884;PMS5003;43703;51.060;-0.086;2022-09-09T08:33:05;8;8;
57884;PMS5003;43703;51.060;-0.086;2022-09-09T08:35:31;8;8;
57884;PMS5003;43703;51.060;-0.086;2022-09-09T08:37:56;6;6;
57884;PMS5003;43703;51.060;-0.086;2022-09-09T08:40:22;9;9;
57884;PMS5003;43703;51.060;-0.086;2022-09-09T08:42:48;7;7;
57884;PMS5003;43703;51.060;-0.086;2022-09-09T08:45:19;8;8;
57884;PMS5003;43703;51.060;-0.086;2022-09-09T08:47:41;11;8;
57884;PMS5003;43703;51.060;-0.086;2022-09-09T08:50:12;9;8;
57884;PMS5003;43703;51.060;-0.086;2022-09-09T08:52:36;10;8;
57884;PMS5003;43703;51.060;-0.086;2022-09-09T08:54:58;10;8;
57884;PMS5003;43703;51.060;-0.086;2022-09-09T08:57:23;9;8;
57884;PMS5003;43703;51.060;-0.086;2022-09-09T08:59:49;8;8;
57884;PMS5003;43703;51.060;-0.086;2022-09-09T09:02:15;10;10;
57884;PMS5003;43703;51.060;-0.086;2022-09-09T09:07:09;8;8;
57884;PMS5003;43703;51.060;-0.086;2022-09-09T09:09:32;10;9;
57884;PMS5003;43703;51.060;-0.086;2022-09-09T09:11:58;9;8;
57884;PMS5003;43703;51.060;-0.086;2022-09-09T09:14:23;11;8;
57884;PMS5003;43703;51.060;-0.086;2022-09-09T09:16:51;8;8;
57884;PMS5003;43703;51.060;-0.086;2022-09-09T09:19:15;11;10;
57884;PMS5003;43703;51.060;-0.086;2022-09-09T09:21:41;12;12;
57884;PMS5003;43703;51.060;-0.086;2022-09-09T09:24:07;9;9;
57884;PMS5003;43703;51.060;-0.086;2022-09-09T09:26:33;10;8;
57884;PMS5003;43703;51.060;-0.086;2022-09-09T09:28:58;11;9;
57884;PMS5003;43703;51.060;-0.086;2022-09-09T09:31:23;10;10;
57884;PMS5003;43703;51.060;-0.086;2022-09-09T09:33:50;11;10;
57884;PMS5003;43703;51.060;-0.086;2022-09-09T09:36:16;10;9;
57884;PMS5003;43703;51.060;-0.086;2022-09-09T09:41:07;16;13;
57884;PMS5003;43703;51.060;-0.086;2022-09-09T09:43:33;13;13;
57884;PMS5003;43703;51.060;-0.086;2022-09-09T09:45:58;9;9;
57884;PMS5003;43703;51.060;-0.086;2022-09-09T09:48:24;9;9;
57884;PMS5003;43703;51.060;-0.086;2022-09-09T09:50:55;11;10;
57884;PMS5003;43703;51.060;-0.086;2022-09-09T09:53:20;11;11;
57884;PMS5003;43703;51.060;-0.086;2022-09-09T09:55:44;14;13;
57884;PMS5003;43703;51.060;-0.086;2022-09-09T09:58:06;9;9;
57884;PMS5003;43703;51.060;-0.086;2022-09-09T10:00:32;12;12;
57884;PMS5003;43703;51.060;-0.086;2022-09-09T10:02:59;8;7;
57884;PMS5003;43703;51.060;-0.086;2022-09-09T10:05:24;8;8;
57884;PMS5003;43703;51.060;-0.086;2022-09-09T10:10:15;9;7;
57884;PMS5003;43703;51.060;-0.086;2022-09-09T10:12:42;9;9;
57884;PMS5003;43703;51.060;-0.086;2022-09-09T10:15:09;11;11;
57884;PMS5003;43703;51.060;-0.086;2022-09-09T10:17:34;9;9;
57884;PMS5003;43703;51.060;-0.086;2022-09-09T10:20:00;8;8;
57884;PMS5003;43703;51.060;-0.086;2022-09-09T10:22:25;9;8;
57884;PMS5003;43703;51.060;-0.086;2022-09-09T10:27:16;12;9;
57884;PMS5003;43703;51.060;-0.086;2022-09-09T10:29:46;10;8;
57884;PMS5003;43703;51.060;-0.086;2022-09-09T10:32:10;13;11;
57884;PMS5003;43703;51.060;-0.086;2022-09-09T10:34:38;17;15;
57884;PMS5003;43703;51.060;-0.086;2022-09-09T10:36:57;16;15;
57884;PMS5003;43703;51.060;-0.086;2022-09-09T10:39:27;18;18;
57884;PMS5003;43703;51.060;-0.086;2022-09-09T10:41:50;16;14;
57884;PMS5003;43703;51.060;-0.086;2022-09-09T10:44:17;15;14;
57884;PMS5003;43703;51.060;-0.086;2022-09-09T10:46:42;17;15;
57884;PMS5003;43703;51.060;-0.086;2022-09-09T10:49:08;19;17;
57884;PMS5003;43703;51.060;-0.086;2022-09-09T10:51:35;16;16;
57884;PMS5003;43703;51.060;-0.086;2022-09-09T10:54:01;15;14;
57884;PMS5003;43703;51.060;-0.086;2022-09-09T10:56:21;13;13;
57884;PMS5003;43703;51.060;-0.086;2022-09-09T10:58:47;11;11;
57884;PMS5003;43703;51.060;-0.086;2022-09-09T11:01:15;15;15;
57884;PMS5003;43703;51.060;-0.086;2022-09-09T11:03:39;10;10;
57884;PMS5003;43703;51.060;-0.086;2022-09-09T11:06:06;11;11;
57884;PMS5003;43703;51.060;-0.086;2022-09-09T11:08:31;10;10;
57884;PMS5003;43703;51.060;-0.086;2022-09-09T11:10:58;7;7;
57884;PMS5003;43703;51.060;-0.086;2022-09-09T11:13:23;6;6;
57884;PMS5003;43703;51.060;-0.086;2022-09-09T11:15:49;5;5;
57884;PMS5003;43703;51.060;-0.086;2022-09-09T11:18:15;7;7;
57884;PMS5003;43703;51.060;-0.086;2022-09-09T11:20:40;6;6;
57884;PMS5003;43703;51.060;-0.086;2022-09-09T11:23:08;3;3;
57884;PMS5003;43703;51.060;-0.086;2022-09-09T11:25:32;6;6;
57884;PMS5003;43703;51.060;-0.086;2022-09-09T11:28:01;4;4;
57884;PMS5003;43703;51.060;-0.086;2022-09-09T11:30:23;3;3;
57884;PMS5003;43703;51.060;-0.086;2022-09-09T11:32:54;3;3;
57884;PMS5003;43703;51.060;-0.086;2022-09-09T11:35:20;6;3;
57884;PMS5003;43703;51.060;-0.086;2022-09-09T11:37:45;3;3;
57884;PMS5003;43703;51.060;-0.086;2022-09-09T11:40:14;5;4;
57884;PMS5003;43703;51.060;-0.086;2022-09-09T11:42:32;3;3;
57884;PMS5003;43703;51.060;-0.086;2022-09-09T11:44:58;4;4;
57884;PMS5003;43703;51.060;-0.086;2022-09-09T11:47:24;4;4;
57884;PMS5003;43703;51.060;-0.086;2022-09-09T11:49:50;3;3;
57884;PMS5003;43703;51.060;-0.086;2022-09-09T11:52:20;3;3;
57884;PMS5003;43703;51.060;-0.086;2022-09-09T11:54:46;3;3;
57884;PMS5003;43703;51.060;-0.086;2022-09-09T11:59:33;4;4;
57884;PMS5003;43703;51.060;-0.086;2022-09-09T12:01:59;3;3;
57884;PMS5003;43703;51.060;-0.086;2022-09-09T12:04:28;4;2;
57884;PMS5003;43703;51.060;-0.086;2022-09-09T12:06:51;3;3;
57884;PMS5003;43703;51.060;-0.086;2022-09-09T12:09:18;4;4;
57884;PMS5003;43703;51.060;-0.086;2022-09-09T12:11:42;2;2;
57884;PMS5003;43703;51.060;-0.086;2022-09-09T12:16:34;4;4;
57884;PMS5003;43703;51.060;-0.086;2022-09-09T12:19:04;3;3;
57884;PMS5003;43703;51.060;-0.086;2022-09-09T12:21:27;3;3;
57884;PMS5003;43703;51.060;-0.086;2022-09-09T12:23:52;4;4;
57884;PMS5003;43703;51.060;-0.086;2022-09-09T12:26:22;3;3;
57884;PMS5003;43703;51.060;-0.086;2022-09-09T12:28:46;3;3;
57884;PMS5003;43703;51.060;-0.086;2022-09-09T12:31:10;4;3;
57884;PMS5003;43703;51.060;-0.086;2022-09-09T12:33:35;3;3;
57884;PMS5003;43703;51.060;-0.086;2022-09-09T12:36:00;4;4;
57884;PMS5003;43703;51.060;-0.086;2022-09-09T12:38:27;5;4;
57884;PMS5003;43703;51.060;-0.086;2022-09-09T12:40:54;2;2;
57884;PMS5003;43703;51.060;-0.086;2022-09-09T12:43:18;3;2;
57884;PMS5003;43703;51.060;-0.086;2022-09-09T12:45:43;3;2;
57884;PMS5003;43703;51.060;-0.086;2022-09-09T12:48:09;3;3;
57884;PMS5003;43703;51.060;-0.086;2022-09-09T12:50:36;4;3;
57884;PMS5003;43703;51.060;-0.086;2022-09-09T12:53:01;3;3;
57884;PMS5003;43703;51.060;-0.086;2022-09-09T12:55:28;5;4;
57884;PMS5003;43703;51.060;-0.086;2022-09-09T12:57:52;5;5;
57884;PMS5003;43703;51.060;-0.086;2022-09-09T13:00:24;5;5;
57884;PMS5003;43703;51.060;-0.086;2022-09-09T13:02:45;5;5;
57884;PMS5003;43703;51.060;-0.086;2022-09-09T13:05:13;6;6;
57884;PMS5003;43703;51.060;-0.086;2022-09-09T13:07:36;4;4;
57884;PMS5003;43703;51.060;-0.086;2022-09-09T13:10:01;3;3;
57884;PMS5003;43703;51.060;-0.086;2022-09-09T13:12:27;4;4;
57884;PMS5003;43703;51.060;-0.086;2022-09-09T13:14:53;4;4;
57884;PMS5003;43703;51.060;-0.086;2022-09-09T13:17:20;2;2;
57884;PMS5003;43703;51.060;-0.086;2022-09-09T13:19:45;3;3;
57884;PMS5003;43703;51.060;-0.086;2022-09-09T13:22:11;3;3;
57884;PMS5003;43703;51.060;-0.086;2022-09-09T13:24:37;2;2;
57884;PMS5003;43703;51.060;-0.086;2022-09-09T13:27:03;2;2;
57884;PMS5003;43703;51.060;-0.086;2022-09-09T13:29:28;3;3;
57884;PMS5003;43703;51.060;-0.086;2022-09-09T13:31:54;2;2;
57884;PMS5003;43703;51.060;-0.086;2022-09-09T13:34:26;2;2;
57884;PMS5003;43703;51.060;-0.086;2022-09-09T13:36:46;2;2;
57884;PMS5003;43703;51.060;-0.086;2022-09-09T13:39:15;4;4;
57884;PMS5003;43703;51.060;-0.086;2022-09-09T13:41:42;5;5;
57884;PMS5003;43703;51.060;-0.086;2022-09-09T13:44:03;2;2;
57884;PMS5003;43703;51.060;-0.086;2022-09-09T13:46:35;3;2;
57884;PMS5003;43703;51.060;-0.086;2022-09-09T13:48:55;2;2;
57884;PMS5003;43703;51.060;-0.086;2022-09-09T13:51:25;2;2;
57884;PMS5003;43703;51.060;-0.086;2022-09-09T13:53:47;4;4;
57884;PMS5003;43703;51.060;-0.086;2022-09-09T13:56:13;3;3;
57884;PMS5003;43703;51.060;-0.086;2022-09-09T13:58:43;2;2;
57884;PMS5003;43703;51.060;-0.086;2022-09-09T14:01:04;2;2;
57884;PMS5003;43703;51.060;-0.086;2022-09-09T14:03:36;3;3;
57884;PMS5003;43703;51.060;-0.086;2022-09-09T14:05:56;2;2;
57884;PMS5003;43703;51.060;-0.086;2022-09-09T14:08:23;3;3;
57884;PMS5003;43703;51.060;-0.086;2022-09-09T14:10:47;2;2;
57884;PMS5003;43703;51.060;-0.086;2022-09-09T14:13:13;4;4;
57884;PMS5003;43703;51.060;-0.086;2022-09-09T14:15:39;4;4;
57884;PMS5003;43703;51.060;-0.086;2022-09-09T14:18:05;3;3;
57884;PMS5003;43703;51.060;-0.086;2022-09-09T14:20:31;2;2;
57884;PMS5003;43703;51.060;-0.086;2022-09-09T14:22:56;1;1;
57884;PMS5003;43703;51.060;-0.086;2022-09-09T14:25:22;1;1;
57884;PMS5003;43703;51.060;-0.086;2022-09-09T14:27:48;4;2;
57884;PMS5003;43703;51.060;-0.086;2022-09-09T14:30:14;3;3;
57884;PMS5003;43703;51.060;-0.086;2022-09-09T14:32:40;1;1;
57884;PMS5003;43703;51.060;-0.086;2022-09-09T14:35:06;1;1;
57884;PMS5003;43703;51.060;-0.086;2022-09-09T14:37:32;1;1;
57884;PMS5003;43703;51.060;-0.086;2022-09-09T14:39:57;3;2;
57884;PMS5003;43703;51.060;-0.086;2022-09-09T14:42:23;1;1;
57884;PMS5003;43703;51.060;-0.086;2022-09-09T14:44:49;5;3;
57884;PMS5003;43703;51.060;-0.086;2022-09-09T14:47:15;2;2;
57884;PMS5003;43703;51.060;-0.086;2022-09-09T14:49:41;4;2;
57884;PMS5003;43703;51.060;-0.086;2022-09-09T14:52:06;3;1;
57884;PMS5003;43703;51.060;-0.086;2022-09-09T14:54:33;2;2;
57884;PMS5003;43703;51.060;-0.086;2022-09-09T14:56:58;2;2;
57884;PMS5003;43703;51.060;-0.086;2022-09-09T14:59:24;2;2;
57884;PMS5003;43703;51.060;-0.086;2022-09-09T15:01:50;2;2;
57884;PMS5003;43703;51.060;-0.086;2022-09-09T15:04:16;2;2;
57884;PMS5003;43703;51.060;-0.086;2022-09-09T15:06:42;2;2;
57884;PMS5003;43703;51.060;-0.086;2022-09-09T15:09:08;2;2;
57884;PMS5003;43703;51.060;-0.086;2022-09-09T15:11:34;2;2;
57884;PMS5003;43703;51.060;-0.086;2022-09-09T15:13:59;2;2;
57884;PMS5003;43703;51.060;-0.086;2022-09-09T15:16:26;2;2;
57884;PMS5003;43703;51.060;-0.086;2022-09-09T15:18:52;2;2;
57884;PMS5003;43703;51.060;-0.086;2022-09-09T15:21:22;11;7;
57884;PMS5003;43703;51.060;-0.086;2022-09-09T15:23:42;2;2;
57884;PMS5003;43703;51.060;-0.086;2022-09-09T15:26:07;4;3;
57884;PMS5003;43703;51.060;-0.086;2022-09-09T15:28:34;2;2;
57884;PMS5003;43703;51.060;-0.086;2022-09-09T15:30:59;2;2;
57884;PMS5003;43703;51.060;-0.086;2022-09-09T15:33:25;2;1;
57884;PMS5003;43703;51.060;-0.086;2022-09-09T15:35:51;2;2;
57884;PMS5003;43703;51.060;-0.086;2022-09-09T15:38:16;3;1;
57884;PMS5003;43703;51.060;-0.086;2022-09-09T15:40:43;1;1;
57884;PMS5003;43703;51.060;-0.086;2022-09-09T15:43:08;2;2;
57884;PMS5003;43703;51.060;-0.086;2022-09-09T15:45:34;1;1;
57884;PMS5003;43703;51.060;-0.086;2022-09-09T15:48:00;3;2;
57884;PMS5003;43703;51.060;-0.086;2022-09-09T15:50:26;1;1;
57884;PMS5003;43703;51.060;-0.086;2022-09-09T15:52:51;4;4;
57884;PMS5003;43703;51.060;-0.086;2022-09-09T15:55:17;3;2;
57884;PMS5003;43703;51.060;-0.086;2022-09-09T15:57:43;3;2;
57884;PMS5003;43703;51.060;-0.086;2022-09-09T16:00:10;2;2;
57884;PMS5003;43703;51.060;-0.086;2022-09-09T16:02:35;2;2;
57884;PMS5003;43703;51.060;-0.086;2022-09-09T16:05:01;2;2;
57884;PMS5003;43703;51.060;-0.086;2022-09-09T16:07:26;1;1;
57884;PMS5003;43703;51.060;-0.086;2022-09-09T16:09:52;1;1;
57884;PMS5003;43703;51.060;-0.086;2022-09-09T16:12:18;2;2;
57884;PMS5003;43703;51.060;-0.086;2022-09-09T16:14:44;2;2;
57884;PMS5003;43703;51.060;-0.086;2022-09-09T16:17:10;1;1;
57884;PMS5003;43703;51.060;-0.086;2022-09-09T16:19:36;3;3;
57884;PMS5003;43703;51.060;-0.086;2022-09-09T16:22:02;2;2;
57884;PMS5003;43703;51.060;-0.086;2022-09-09T16:24:27;3;3;
57884;PMS5003;43703;51.060;-0.086;2022-09-09T16:26:54;3;3;
57884;PMS5003;43703;51.060;-0.086;2022-09-09T16:29:19;1;1;
57884;PMS5003;43703;51.060;-0.086;2022-09-09T16:31:45;4;4;
57884;PMS5003;43703;51.060;-0.086;2022-09-09T16:34:11;4;4;
57884;PMS5003;43703;51.060;-0.086;2022-09-09T16:36:38;4;3;
57884;PMS5003;43703;51.060;-0.086;2022-09-09T16:39:03;3;3;
57884;PMS5003;43703;51.060;-0.086;2022-09-09T16:41:29;1;1;
57884;PMS5003;43703;51.060;-0.086;2022-09-09T16:43:54;2;2;
57884;PMS5003;43703;51.060;-0.086;2022-09-09T16:46:20;3;3;
57884;PMS5003;43703;51.060;-0.086;2022-09-09T16:48:47;4;3;
57884;PMS5003;43703;51.060;-0.086;2022-09-09T16:51:13;2;2;